Aviation Digital Data Service (ADDS)

Output produced by METARs form (1015 UTC 21 January 2018)
found at http://aviationweather.gov/adds/metars/
 
KOEO 210955Z AUTO 00000KT 10SM OVC080 00/00 A2998 RMK AO2 T10011001